Time;durP1;ratioP1;P1;durP2;ratioP2;P2;SDS_P1;SDS_P2;PMS_P1;PMS_P2;Temp;Humidity;BMP_temperature;BMP_pressure;BME280_temperature;BME280_humidity;BME280_pressure;Samples;Min_cycle;Max_cycle;Signal;HPM_P1;HPM_P2
2023/09/19 00:00:38;;;;;;;3.83;1.60;;;17.40;99.90;;;;;;4187419;28;20215;-74
2023/09/19 00:02:40;;;;;;;7.57;1.83;;;17.30;99.90;;;;;;4168726;28;20213;-75
2023/09/19 00:04:42;;;;;;;2.63;1.53;;;17.30;99.90;;;;;;4185727;28;20680;-75
2023/09/19 00:06:44;;;;;;;4.10;1.70;;;17.30;99.90;;;;;;4187728;28;20603;-75
2023/09/19 00:08:47;;;;;;;3.23;1.50;;;17.30;99.90;;;;;;4183292;28;20935;-75
2023/09/19 00:10:49;;;;;;;3.63;1.60;;;17.30;99.90;;;;;;4183586;28;20604;-75
2023/09/19 00:12:52;;;;;;;3.60;1.40;;;17.30;99.90;;;;;;4185745;28;20205;-75
2023/09/19 00:14:56;;;;;;;4.40;2.00;;;17.30;99.90;;;;;;4169524;28;20238;-75
2023/09/19 00:17:00;;;;;;;4.30;1.80;;;17.30;99.90;;;;;;4188747;28;20221;-75
2023/09/19 00:19:08;;;;;;;2.63;1.50;;;17.30;99.90;;;;;;4191150;28;20479;-75
2023/09/19 00:21:10;;;;;;;2.37;1.50;;;17.30;99.90;;;;;;4191087;28;20232;-76
2023/09/19 00:23:12;;;;;;;4.23;1.70;;;17.30;99.90;;;;;;4177596;28;20385;-75
2023/09/19 00:25:15;;;;;;;4.53;1.70;;;17.20;99.90;;;;;;4190449;28;20213;-75
2023/09/19 00:27:18;;;;;;;2.87;1.77;;;17.20;99.90;;;;;;4189491;28;20244;-75
2023/09/19 00:29:21;;;;;;;3.27;1.70;;;17.20;99.90;;;;;;4194655;28;20224;-76
2023/09/19 00:31:25;;;;;;;4.00;1.90;;;17.20;99.90;;;;;;4173861;28;20219;-76
2023/09/19 00:33:29;;;;;;;2.27;1.70;;;17.20;99.90;;;;;;4189889;28;20209;-75
2023/09/19 00:35:31;;;;;;;2.10;1.50;;;17.20;99.90;;;;;;4186834;28;20213;-76
2023/09/19 00:37:32;;;;;;;3.33;1.83;;;17.20;99.90;;;;;;4189190;28;20237;-75
2023/09/19 00:39:34;;;;;;;2.77;1.60;;;17.10;99.90;;;;;;4188256;28;20263;-76
2023/09/19 00:41:36;;;;;;;3.97;1.83;;;17.10;99.90;;;;;;4189673;28;20205;-76
2023/09/19 00:43:40;;;;;;;5.53;1.90;;;17.10;99.90;;;;;;4187355;28;20213;-75
2023/09/19 00:45:45;;;;;;;4.03;1.83;;;17.10;99.90;;;;;;4187606;28;20212;-75
2023/09/19 00:47:49;;;;;;;3.23;2.07;;;17.10;99.90;;;;;;4189292;28;20237;-76
2023/09/19 00:49:52;;;;;;;1.90;1.57;;;17.10;99.90;;;;;;4188208;28;20719;-76
2023/09/19 00:51:56;;;;;;;4.13;1.80;;;17.10;99.90;;;;;;4190874;28;20216;-75
2023/09/19 00:53:59;;;;;;;4.80;1.97;;;17.10;99.90;;;;;;4169738;28;20618;-75
2023/09/19 00:56:00;;;;;;;5.33;1.70;;;17.10;99.90;;;;;;4191271;28;20205;-75
2023/09/19 00:58:02;;;;;;;3.63;2.00;;;17.10;99.90;;;;;;4188304;28;20217;-75
2023/09/19 01:00:06;;;;;;;4.67;2.20;;;17.10;99.90;;;;;;4190962;28;20207;-75
2023/09/19 01:02:08;;;;;;;2.70;1.87;;;17.00;99.90;;;;;;4190409;28;20280;-75
2023/09/19 01:04:10;;;;;;;5.30;2.43;;;17.00;99.90;;;;;;4188160;28;20209;-75
2023/09/19 01:06:14;;;;;;;4.03;1.87;;;17.10;99.90;;;;;;4176510;28;20274;-75
2023/09/19 01:08:16;;;;;;;3.83;1.77;;;17.00;99.90;;;;;;4190306;28;20265;-76
2023/09/19 01:10:21;;;;;;;2.40;1.87;;;17.00;99.90;;;;;;4186801;28;20209;-76
2023/09/19 01:12:29;;;;;;;8.13;2.30;;;17.00;99.90;;;;;;4187225;28;20685;-75
2023/09/19 01:14:43;;;;;;;4.67;1.90;;;17.00;99.90;;;;;;4190680;28;20216;-75
2023/09/19 01:16:54;;;;;;;6.43;2.17;;;16.90;99.90;;;;;;4190722;28;20638;-75
2023/09/19 01:19:08;;;;;;;4.97;2.20;;;16.90;99.90;;;;;;4191881;28;20258;-76
2023/09/19 01:21:19;;;;;;;5.50;2.13;;;17.00;99.90;;;;;;4191119;28;20217;-75
2023/09/19 01:23:29;;;;;;;3.23;1.90;;;16.90;99.90;;;;;;4188066;28;20258;-75
2023/09/19 01:26:12;;;;;;;5.20;2.07;;;16.90;99.90;;;;;;4188013;28;20208;-75
2023/09/19 01:28:26;;;;;;;3.93;2.00;;;16.90;99.90;;;;;;4186577;28;20243;-75
2023/09/19 01:30:37;;;;;;;4.30;2.10;;;16.90;99.90;;;;;;4187668;28;20258;-75
2023/09/19 01:32:41;;;;;;;2.47;1.73;;;16.80;99.90;;;;;;4188986;28;20305;-74
2023/09/19 01:34:48;;;;;;;3.73;1.93;;;16.80;99.90;;;;;;4186812;28;20214;-75
2023/09/19 01:36:49;;;;;;;3.87;1.70;;;16.80;99.90;;;;;;4171152;28;20660;-75
2023/09/19 01:38:51;;;;;;;3.90;2.00;;;16.80;99.90;;;;;;4188400;28;20236;-75
2023/09/19 01:40:59;;;;;;;2.27;1.67;;;16.70;99.90;;;;;;4187413;28;20217;-75
2023/09/19 01:43:12;;;;;;;3.27;1.90;;;16.70;99.90;;;;;;4190510;28;20205;-75
2023/09/19 01:45:26;;;;;;;5.67;2.30;;;16.70;99.90;;;;;;4186474;28;20205;-75
2023/09/19 01:47:35;;;;;;;4.30;1.80;;;16.70;99.90;;;;;;4189675;28;20266;-75
2023/09/19 01:49:46;;;;;;;2.57;1.80;;;16.70;99.90;;;;;;4189209;28;20302;-75
2023/09/19 01:51:56;;;;;;;5.13;1.80;;;16.70;99.90;;;;;;4189503;28;20216;-75
2023/09/19 01:54:03;;;;;;;2.57;1.70;;;16.60;99.90;;;;;;4187161;28;20216;-76
2023/09/19 01:56:12;;;;;;;3.70;1.93;;;16.70;99.90;;;;;;4186114;28;20230;-75
2023/09/19 01:58:20;;;;;;;3.70;1.60;;;16.70;99.90;;;;;;4189767;28;20201;-75
2023/09/19 02:00:26;;;;;;;2.90;1.53;;;16.70;99.90;;;;;;4188351;28;20238;-75
2023/09/19 02:02:30;;;;;;;2.17;1.40;;;16.70;99.90;;;;;;4188343;28;20588;-76
2023/09/19 02:04:34;;;;;;;2.93;1.50;;;16.70;99.90;;;;;;4187290;28;20229;-75
2023/09/19 02:06:41;;;;;;;3.13;1.50;;;16.70;99.90;;;;;;4191132;28;20231;-76
2023/09/19 02:08:42;;;;;;;4.23;1.80;;;16.80;99.90;;;;;;4188622;28;20289;-75
2023/09/19 02:10:46;;;;;;;2.77;1.60;;;16.80;99.90;;;;;;4184598;28;20201;-76
2023/09/19 02:12:48;;;;;;;2.60;1.47;;;16.80;99.90;;;;;;4187656;28;20234;-76
2023/09/19 02:14:50;;;;;;;2.00;1.30;;;16.80;99.90;;;;;;4192036;28;20672;-76
2023/09/19 02:16:52;;;;;;;2.73;1.40;;;16.80;99.90;;;;;;4189306;28;20297;-74
2023/09/19 02:18:55;;;;;;;2.73;1.50;;;16.80;99.90;;;;;;4190187;28;20281;-76
2023/09/19 02:20:58;;;;;;;3.83;1.30;;;16.80;99.90;;;;;;4186948;28;20662;-76
2023/09/19 02:23:00;;;;;;;2.67;1.30;;;16.80;99.90;;;;;;4187876;28;20220;-76
2023/09/19 02:25:01;;;;;;;4.67;1.53;;;16.80;99.90;;;;;;4185649;28;20204;-76
2023/09/19 02:27:05;;;;;;;1.73;1.33;;;16.80;99.90;;;;;;4191011;28;20787;-76
2023/09/19 02:29:07;;;;;;;2.90;1.50;;;16.80;99.90;;;;;;4189175;28;20211;-76
2023/09/19 02:31:10;;;;;;;2.83;1.23;;;16.80;99.90;;;;;;4169366;28;20210;-73
2023/09/19 02:33:13;;;;;;;3.07;1.50;;;16.80;99.90;;;;;;4181292;28;20212;-75
2023/09/19 02:35:16;;;;;;;2.77;1.70;;;16.80;99.90;;;;;;4179055;28;20216;-76
2023/09/19 02:37:19;;;;;;;3.07;1.57;;;16.80;99.90;;;;;;4182664;28;20228;-76
2023/09/19 02:39:20;;;;;;;3.70;1.63;;;16.90;99.90;;;;;;4181229;28;20422;-76
2023/09/19 02:41:22;;;;;;;2.30;1.70;;;16.90;99.90;;;;;;4180607;28;20197;-76
2023/09/19 02:43:24;;;;;;;4.37;1.80;;;16.90;99.90;;;;;;4180330;28;20205;-75
2023/09/19 02:45:27;;;;;;;2.57;1.40;;;16.90;99.90;;;;;;4168504;28;20553;-76
2023/09/19 02:47:31;;;;;;;2.70;1.20;;;16.90;99.90;;;;;;4187843;28;20227;-74
2023/09/19 02:49:33;;;;;;;4.00;1.47;;;16.90;99.90;;;;;;4187617;28;20224;-75
2023/09/19 02:51:36;;;;;;;2.50;1.23;;;16.90;99.90;;;;;;4185968;28;20288;-74
2023/09/19 02:53:39;;;;;;;4.23;1.27;;;16.90;99.90;;;;;;4176061;28;20263;-75
2023/09/19 02:55:42;;;;;;;2.27;1.40;;;16.90;99.90;;;;;;4167625;28;20305;-75
2023/09/19 02:57:47;;;;;;;1.30;1.13;;;16.90;99.90;;;;;;4187531;28;20243;-76
2023/09/19 02:59:49;;;;;;;3.03;1.20;;;17.00;99.90;;;;;;4187740;28;20223;-75
2023/09/19 03:01:54;;;;;;;1.73;1.10;;;17.00;99.90;;;;;;4189243;28;20615;-75
2023/09/19 03:03:56;;;;;;;3.43;1.30;;;16.90;99.90;;;;;;4187909;28;20598;-75
2023/09/19 03:05:58;;;;;;;2.10;1.00;;;17.00;99.90;;;;;;4169376;28;20229;-76
2023/09/19 03:08:02;;;;;;;2.43;1.50;;;17.00;99.90;;;;;;4187659;28;20232;-76
2023/09/19 03:10:05;;;;;;;3.87;1.60;;;17.00;99.90;;;;;;4166906;28;20233;-75
2023/09/19 03:12:08;;;;;;;2.50;1.20;;;17.00;99.90;;;;;;4188266;28;20586;-75
2023/09/19 03:14:09;;;;;;;3.63;1.23;;;17.00;99.90;;;;;;4186717;28;20416;-75
2023/09/19 03:16:14;;;;;;;4.50;1.40;;;17.00;99.90;;;;;;4169589;28;20575;-73
2023/09/19 03:18:16;;;;;;;2.20;1.20;;;17.00;99.90;;;;;;4187136;28;20682;-75
2023/09/19 03:20:22;;;;;;;1.93;1.20;;;17.00;99.90;;;;;;4182804;28;20221;-75
2023/09/19 03:22:24;;;;;;;2.67;1.50;;;17.00;99.90;;;;;;4168869;28;20778;-75
2023/09/19 03:24:29;;;;;;;1.70;1.23;;;17.10;99.90;;;;;;4184212;28;20230;-75
2023/09/19 03:26:31;;;;;;;3.27;1.27;;;17.10;99.90;;;;;;4183050;28;20671;-75
2023/09/19 03:28:35;;;;;;;3.30;1.20;;;17.10;99.90;;;;;;4189688;28;20216;-75
2023/09/19 03:30:38;;;;;;;4.37;1.13;;;17.10;99.90;;;;;;4190023;28;20655;-75
2023/09/19 03:32:46;;;;;;;1.73;1.20;;;17.10;99.90;;;;;;4186943;28;20214;-75
2023/09/19 03:34:48;;;;;;;1.97;1.10;;;17.10;99.90;;;;;;4188265;28;20295;-75
2023/09/19 03:36:50;;;;;;;2.00;1.00;;;17.10;99.90;;;;;;4186767;28;20232;-75
2023/09/19 03:38:52;;;;;;;3.73;1.23;;;17.10;99.90;;;;;;4185502;28;20205;-75
2023/09/19 03:40:56;;;;;;;1.13;1.00;;;17.00;99.90;;;;;;4184893;28;20205;-75
2023/09/19 03:43:01;;;;;;;3.17;1.20;;;17.00;99.90;;;;;;4187796;28;20279;-75
2023/09/19 03:45:05;;;;;;;4.07;1.20;;;17.00;99.90;;;;;;4183806;28;20212;-75
2023/09/19 03:47:07;;;;;;;2.47;1.20;;;17.00;99.90;;;;;;4186808;28;20221;-75
2023/09/19 03:49:10;;;;;;;5.73;1.20;;;17.00;99.90;;;;;;4185900;28;20506;-75
2023/09/19 03:51:12;;;;;;;2.10;1.20;;;17.00;99.90;;;;;;4185618;28;20215;-75
2023/09/19 03:53:14;;;;;;;1.93;1.20;;;16.90;99.90;;;;;;4186637;28;20623;-75
2023/09/19 03:55:16;;;;;;;3.47;1.53;;;16.90;99.90;;;;;;4189600;28;20231;-75
2023/09/19 03:57:20;;;;;;;3.37;1.47;;;16.90;99.90;;;;;;4189537;28;20269;-75
2023/09/19 03:59:22;;;;;;;2.63;1.43;;;16.90;99.90;;;;;;4184754;28;20205;-74
2023/09/19 04:01:24;;;;;;;5.30;1.20;;;16.80;99.90;;;;;;4167229;28;20699;-74
2023/09/19 04:03:34;;;;;;;2.13;1.47;;;16.80;99.90;;;;;;4188141;28;20221;-74
2023/09/19 04:05:36;;;;;;;3.40;1.47;;;16.80;99.90;;;;;;4186665;28;20311;-76
2023/09/19 04:07:37;;;;;;;2.00;1.23;;;16.80;99.90;;;;;;4184753;28;20254;-76
2023/09/19 04:09:39;;;;;;;2.37;1.50;;;16.80;99.90;;;;;;4185450;28;20282;-76
2023/09/19 04:11:41;;;;;;;3.27;1.70;;;16.70;99.90;;;;;;4185917;28;20208;-76
2023/09/19 04:13:44;;;;;;;3.10;1.80;;;16.70;99.90;;;;;;4187199;28;20211;-76
2023/09/19 04:15:46;;;;;;;1.67;1.40;;;16.70;99.90;;;;;;4169190;28;20219;-77
2023/09/19 04:17:48;;;;;;;3.57;1.50;;;16.70;99.90;;;;;;4188276;28;20771;-77
2023/09/19 04:19:50;;;;;;;2.07;1.37;;;16.70;99.90;;;;;;4186301;28;20200;-76
2023/09/19 04:21:52;;;;;;;3.53;1.20;;;16.70;99.90;;;;;;4185743;28;20261;-76
2023/09/19 04:23:54;;;;;;;4.27;1.67;;;16.70;99.90;;;;;;4184710;28;20205;-76
2023/09/19 04:25:57;;;;;;;3.03;1.20;;;16.60;99.90;;;;;;4184972;28;20764;-76
2023/09/19 04:27:58;;;;;;;4.63;1.60;;;16.60;99.90;;;;;;4188417;28;20297;-76
2023/09/19 04:30:09;;;;;;;3.77;1.90;;;16.60;99.90;;;;;;4185184;28;20227;-77
2023/09/19 04:32:13;;;;;;;2.47;1.30;;;16.60;99.90;;;;;;4184355;28;20196;-76
2023/09/19 04:34:17;;;;;;;3.80;1.27;;;16.60;99.90;;;;;;4185181;28;20221;-75
2023/09/19 04:36:20;;;;;;;1.70;1.10;;;16.60;99.90;;;;;;4188869;28;20743;-76
2023/09/19 04:38:23;;;;;;;2.10;1.23;;;16.60;99.90;;;;;;4186003;28;20211;-76
2023/09/19 04:40:26;;;;;;;2.50;1.13;;;16.60;99.90;;;;;;4183684;28;20212;-76
2023/09/19 04:42:27;;;;;;;3.47;1.50;;;16.60;99.90;;;;;;4170971;28;20308;-74
2023/09/19 04:44:29;;;;;;;2.07;1.00;;;16.60;99.90;;;;;;4190392;28;20255;-76
2023/09/19 04:46:31;;;;;;;3.00;1.40;;;16.60;99.90;;;;;;4186772;28;20204;-75
2023/09/19 04:48:34;;;;;;;3.27;1.50;;;16.60;99.90;;;;;;4186246;28;20265;-76
2023/09/19 04:50:37;;;;;;;2.20;1.20;;;16.50;99.90;;;;;;4186916;28;20637;-75
2023/09/19 04:52:43;;;;;;;1.80;1.03;;;16.50;99.90;;;;;;4185187;28;20671;-74
2023/09/19 04:54:46;;;;;;;3.00;1.30;;;16.50;99.90;;;;;;4187152;28;20199;-75
2023/09/19 04:56:47;;;;;;;3.70;1.33;;;16.50;99.90;;;;;;4185572;28;20223;-77
2023/09/19 04:58:49;;;;;;;4.57;1.83;;;16.60;99.90;;;;;;4186561;28;20733;-75
2023/09/19 05:00:51;;;;;;;2.17;1.40;;;16.50;99.90;;;;;;4186860;28;20648;-76
2023/09/19 05:02:57;;;;;;;4.97;1.37;;;16.50;99.90;;;;;;4190222;28;20200;-74
2023/09/19 05:05:00;;;;;;;3.33;1.20;;;16.50;99.90;;;;;;4187772;28;20676;-76
2023/09/19 05:07:03;;;;;;;2.23;1.20;;;16.50;99.90;;;;;;4189939;28;20220;-74
2023/09/19 05:09:05;;;;;;;4.63;1.33;;;16.50;99.90;;;;;;4192261;28;20230;-74
2023/09/19 05:11:08;;;;;;;5.33;1.60;;;16.50;99.90;;;;;;4189067;28;20270;-73
2023/09/19 05:13:10;;;;;;;2.57;1.37;;;16.50;99.90;;;;;;4190897;28;20233;-75
2023/09/19 05:15:12;;;;;;;3.03;1.27;;;16.40;99.90;;;;;;4173988;28;20209;-78
2023/09/19 05:17:16;;;;;;;1.73;1.00;;;16.40;99.90;;;;;;4188228;28;20262;-75
2023/09/19 05:19:22;;;;;;;2.40;1.27;;;16.40;99.90;;;;;;4190476;28;20213;-74
2023/09/19 05:21:24;;;;;;;3.07;1.10;;;16.40;99.90;;;;;;4187683;28;20213;-75
2023/09/19 05:23:27;;;;;;;4.33;1.10;;;16.40;99.90;;;;;;4187048;28;20209;-74
2023/09/19 05:25:30;;;;;;;2.50;1.30;;;16.40;99.90;;;;;;4188180;28;20671;-74
2023/09/19 05:27:33;;;;;;;2.40;1.10;;;16.40;99.90;;;;;;4184560;28;20292;-76
2023/09/19 05:29:34;;;;;;;3.17;1.10;;;16.40;99.90;;;;;;4184714;28;20276;-74
2023/09/19 05:31:40;;;;;;;2.73;1.23;;;16.30;99.90;;;;;;4185885;28;20207;-76
2023/09/19 05:33:43;;;;;;;2.07;1.20;;;16.30;99.90;;;;;;4187710;28;20206;-76
2023/09/19 05:35:46;;;;;;;2.57;1.40;;;16.30;99.90;;;;;;4186416;28;20199;-75
2023/09/19 05:37:50;;;;;;;4.10;1.37;;;16.30;99.90;;;;;;4186640;28;20414;-75
2023/09/19 05:39:52;;;;;;;2.27;1.10;;;16.30;99.90;;;;;;4182918;22;21069;-79
2023/09/19 05:41:54;;;;;;;3.73;1.30;;;16.30;99.90;;;;;;4173677;28;20223;-77
2023/09/19 05:43:56;;;;;;;2.33;1.23;;;16.30;99.90;;;;;;4174068;28;20249;-76
2023/09/19 05:46:01;;;;;;;1.63;1.10;;;16.20;99.90;;;;;;4173882;28;20568;-77
2023/09/19 05:48:09;;;;;;;3.13;1.10;;;16.20;99.90;;;;;;4165625;28;20604;-78
2023/09/19 05:50:11;;;;;;;3.73;1.30;;;16.20;99.90;;;;;;4171606;28;20224;-77
2023/09/19 05:52:14;;;;;;;2.47;1.30;;;16.20;99.90;;;;;;4164415;28;20208;-78
2023/09/19 05:54:18;;;;;;;3.37;1.37;;;16.10;99.90;;;;;;4170523;28;20213;-76
2023/09/19 05:56:20;;;;;;;2.17;1.30;;;16.20;99.90;;;;;;4162570;28;20228;-77
2023/09/19 05:58:22;;;;;;;2.20;1.20;;;16.20;99.90;;;;;;4174067;28;20270;-78
2023/09/19 06:00:27;;;;;;;1.97;1.13;;;16.20;99.90;;;;;;4170691;28;20228;-76
2023/09/19 06:02:30;;;;;;;3.60;1.20;;;16.20;99.90;;;;;;4175918;28;20615;-78
2023/09/19 06:04:31;;;;;;;2.20;1.37;;;16.20;99.90;;;;;;4174225;28;20295;-76
2023/09/19 06:06:33;;;;;;;2.03;1.30;;;16.30;99.90;;;;;;4157819;28;20217;-77
2023/09/19 06:08:37;;;;;;;2.03;1.50;;;16.10;99.90;;;;;;4174573;28;20200;-78
2023/09/19 06:10:39;;;;;;;2.73;1.17;;;16.10;99.90;;;;;;4170144;28;20235;-78
2023/09/19 06:12:43;;;;;;;4.13;1.50;;;16.20;99.90;;;;;;4177919;28;20196;-78
2023/09/19 06:14:46;;;;;;;1.73;1.13;;;16.10;99.90;;;;;;4158596;28;20216;-78
2023/09/19 06:16:48;;;;;;;3.07;1.30;;;16.10;99.90;;;;;;4172582;28;20630;-77
2023/09/19 06:18:52;;;;;;;2.87;1.23;;;16.20;99.90;;;;;;4155645;28;20220;-78
2023/09/19 06:20:55;;;;;;;3.13;1.40;;;16.20;99.90;;;;;;4172978;28;20224;-78
2023/09/19 06:22:58;;;;;;;3.70;1.40;;;16.20;99.90;;;;;;4158306;28;20202;-77
2023/09/19 06:25:01;;;;;;;1.60;1.20;;;16.20;99.90;;;;;;4171495;28;20208;-79
2023/09/19 06:27:04;;;;;;;4.70;1.40;;;16.30;99.90;;;;;;4172470;28;20213;-80
2023/09/19 06:29:07;;;;;;;2.47;1.40;;;16.30;99.90;;;;;;4171656;28;20234;-78
2023/09/19 06:31:09;;;;;;;1.93;1.40;;;16.30;99.90;;;;;;4171816;28;20229;-78
2023/09/19 06:33:12;;;;;;;2.97;1.30;;;16.40;99.90;;;;;;4172874;28;20212;-76
2023/09/19 06:35:15;;;;;;;2.80;1.50;;;16.40;99.90;;;;;;4171151;28;20216;-78
2023/09/19 06:37:18;;;;;;;2.90;1.30;;;16.40;99.90;;;;;;4170310;28;20631;-78
2023/09/19 06:39:22;;;;;;;4.10;1.23;;;16.50;99.90;;;;;;4169877;28;20214;-78
2023/09/19 06:41:25;;;;;;;5.13;1.17;;;16.50;99.90;;;;;;4171230;28;20273;-79
2023/09/19 06:43:28;;;;;;;3.80;1.10;;;16.60;99.90;;;;;;4174820;28;20282;-77
2023/09/19 06:45:31;;;;;;;5.10;1.60;;;16.60;99.90;;;;;;4171868;28;20756;-78
2023/09/19 06:47:33;;;;;;;2.80;1.30;;;16.70;99.90;;;;;;4175618;28;20576;-78
2023/09/19 06:49:35;;;;;;;3.23;1.60;;;16.80;99.90;;;;;;4171385;28;20239;-78
2023/09/19 06:51:37;;;;;;;3.60;1.40;;;16.80;99.90;;;;;;4170976;28;20207;-79
2023/09/19 06:53:40;;;;;;;1.63;1.30;;;16.90;99.90;;;;;;4173327;28;20303;-78
2023/09/19 06:55:43;;;;;;;1.90;1.20;;;16.90;99.90;;;;;;4170491;28;20859;-77
2023/09/19 06:57:47;;;;;;;3.60;1.30;;;17.10;99.90;;;;;;4173365;28;20594;-78
2023/09/19 06:59:49;;;;;;;1.93;1.30;;;17.10;99.90;;;;;;4171938;28;20233;-78
2023/09/19 07:01:51;;;;;;;4.33;1.10;;;17.20;99.90;;;;;;4174523;28;20211;-78
2023/09/19 07:03:54;;;;;;;2.00;1.00;;;17.20;99.90;;;;;;4172874;28;20676;-77
2023/09/19 07:05:58;;;;;;;4.00;1.37;;;17.30;99.90;;;;;;4172079;28;20210;-78
2023/09/19 07:08:00;;;;;;;2.43;1.03;;;17.40;99.90;;;;;;4157835;28;20225;-77
2023/09/19 07:10:01;;;;;;;2.93;1.20;;;17.50;99.90;;;;;;4172149;28;20230;-78
2023/09/19 07:12:04;;;;;;;2.50;1.10;;;17.50;99.90;;;;;;4174405;28;21232;-78
2023/09/19 07:14:08;;;;;;;3.27;1.30;;;17.60;99.90;;;;;;4173614;28;20243;-78
2023/09/19 07:16:13;;;;;;;3.00;1.13;;;17.70;99.90;;;;;;4170659;28;20214;-79
2023/09/19 07:18:16;;;;;;;3.57;1.10;;;17.70;99.90;;;;;;4174081;28;20677;-79
2023/09/19 07:20:18;;;;;;;2.50;1.10;;;17.70;99.90;;;;;;4175195;28;20229;-77
2023/09/19 07:22:20;;;;;;;5.53;1.30;;;17.80;99.90;;;;;;4171400;28;20419;-78
2023/09/19 07:24:23;;;;;;;2.83;1.10;;;17.80;99.90;;;;;;4171779;28;20667;-78
2023/09/19 07:26:25;;;;;;;2.60;1.20;;;17.90;99.90;;;;;;4170552;28;20236;-79
2023/09/19 07:28:28;;;;;;;1.57;1.00;;;17.90;99.90;;;;;;4174223;28;20210;-78
2023/09/19 07:30:31;;;;;;;3.80;1.30;;;18.00;99.90;;;;;;4171821;28;20282;-77
2023/09/19 07:32:33;;;;;;;2.83;1.43;;;18.00;99.90;;;;;;4170147;28;20263;-78
2023/09/19 07:34:35;;;;;;;7.83;1.60;;;18.00;99.90;;;;;;4174468;28;20215;-77
2023/09/19 07:36:37;;;;;;;1.97;1.20;;;18.00;99.90;;;;;;4171593;28;20206;-78
2023/09/19 07:38:40;;;;;;;2.23;0.93;;;18.10;99.90;;;;;;4154463;28;20274;-78
2023/09/19 07:40:42;;;;;;;4.57;1.60;;;18.10;99.90;;;;;;4172394;28;20829;-78
2023/09/19 07:42:44;;;;;;;6.90;1.90;;;18.20;99.90;;;;;;4170989;28;20237;-79
2023/09/19 07:44:49;;;;;;;2.30;1.20;;;18.30;99.90;;;;;;4171259;28;20290;-78
2023/09/19 07:46:53;;;;;;;4.63;1.40;;;18.30;99.90;;;;;;4168646;28;20668;-79
2023/09/19 07:48:55;;;;;;;2.53;1.20;;;18.40;99.90;;;;;;4172015;28;20800;-79
2023/09/19 07:50:57;;;;;;;5.03;1.07;;;18.40;99.90;;;;;;4172982;28;20227;-78
2023/09/19 07:52:59;;;;;;;2.70;1.10;;;18.50;99.90;;;;;;4172885;28;20244;-78
2023/09/19 07:55:01;;;;;;;5.50;1.30;;;18.60;99.90;;;;;;4173243;28;20194;-77
2023/09/19 07:57:04;;;;;;;1.47;0.90;;;18.60;99.90;;;;;;4172346;28;20222;-76
2023/09/19 07:59:06;;;;;;;2.40;1.00;;;18.70;99.90;;;;;;4166741;28;20217;-77
2023/09/19 08:01:10;;;;;;;3.50;1.10;;;18.80;99.90;;;;;;4167272;28;20238;-76
2023/09/19 08:03:14;;;;;;;2.67;1.20;;;18.90;99.90;;;;;;4170843;28;20550;-78
2023/09/19 08:05:15;;;;;;;2.93;1.00;;;19.00;99.90;;;;;;4169239;28;20215;-77
2023/09/19 08:07:18;;;;;;;3.10;1.13;;;19.00;99.90;;;;;;4173067;28;20213;-77
2023/09/19 08:09:21;;;;;;;3.23;1.20;;;18.90;99.90;;;;;;4171439;28;20209;-77
2023/09/19 08:11:24;;;;;;;3.60;1.50;;;18.90;99.90;;;;;;4169181;28;20240;-77
2023/09/19 08:13:27;;;;;;;3.53;1.30;;;18.90;99.90;;;;;;4173235;28;20301;-78
2023/09/19 08:15:31;;;;;;;4.60;1.30;;;18.90;99.90;;;;;;4172727;28;20207;-78
2023/09/19 08:17:35;;;;;;;4.90;1.10;;;19.10;99.90;;;;;;4171339;28;20581;-78
2023/09/19 08:19:41;;;;;;;4.50;0.83;;;18.90;99.90;;;;;;4157501;28;20226;-78
2023/09/19 08:21:46;;;;;;;4.03;1.30;;;18.90;99.90;;;;;;4172329;28;20203;-77
2023/09/19 08:23:48;;;;;;;5.10;1.33;;;18.90;99.90;;;;;;4170980;28;20240;-77
2023/09/19 08:25:51;;;;;;;7.47;1.57;;;18.80;99.90;;;;;;4170313;28;20668;-77
2023/09/19 08:27:58;;;;;;;2.27;1.00;;;18.80;99.90;;;;;;4166369;28;20208;-77
2023/09/19 08:29:59;;;;;;;5.40;1.67;;;18.80;99.90;;;;;;4171006;28;20431;-79
2023/09/19 08:32:01;;;;;;;3.30;1.07;;;18.80;99.90;;;;;;4174937;28;20203;-77
2023/09/19 08:34:03;;;;;;;4.30;1.20;;;18.80;99.90;;;;;;4171206;28;20272;-77
2023/09/19 08:36:09;;;;;;;3.27;1.10;;;18.80;99.90;;;;;;4169865;28;20215;-77
2023/09/19 08:38:11;;;;;;;7.73;1.30;;;18.80;99.90;;;;;;4172749;28;20210;-77
2023/09/19 08:40:13;;;;;;;2.07;1.20;;;18.90;99.90;;;;;;4175285;28;20765;-78
2023/09/19 08:42:16;;;;;;;4.17;1.83;;;18.80;99.90;;;;;;4183450;28;20266;-77
2023/09/19 08:44:19;;;;;;;4.80;1.50;;;18.80;99.90;;;;;;4179868;28;20217;-78
2023/09/19 08:46:24;;;;;;;5.70;1.40;;;18.80;99.90;;;;;;4187186;28;20206;-77
2023/09/19 08:48:28;;;;;;;5.27;1.57;;;18.80;99.90;;;;;;4185161;28;20223;-78
2023/09/19 08:50:31;;;;;;;4.33;1.13;;;18.80;99.90;;;;;;4176447;28;20410;-77
2023/09/19 08:52:41;;;;;;;4.40;1.40;;;18.80;99.90;;;;;;4180722;28;20206;-77
2023/09/19 08:54:45;;;;;;;4.43;1.23;;;18.70;99.90;;;;;;4176360;28;20272;-77
2023/09/19 08:56:48;;;;;;;3.97;1.47;;;18.70;99.90;;;;;;4177053;28;20207;-78
2023/09/19 08:58:54;;;;;;;4.47;1.23;;;18.70;99.90;;;;;;4173751;28;20324;-78
2023/09/19 09:00:58;;;;;;;2.80;1.23;;;18.70;99.90;;;;;;4171935;28;20230;-78
2023/09/19 09:03:01;;;;;;;1.90;1.03;;;18.80;99.90;;;;;;4175734;28;20203;-78
2023/09/19 09:05:05;;;;;;;3.53;1.00;;;18.90;99.90;;;;;;4175256;28;20214;-78
2023/09/19 09:07:11;;;;;;;4.33;1.20;;;18.90;99.90;;;;;;4173379;28;20207;-78
2023/09/19 09:09:14;;;;;;;3.13;0.93;;;19.00;99.90;;;;;;4172195;28;20210;-78
2023/09/19 09:11:17;;;;;;;7.23;1.37;;;19.10;99.90;;;;;;4170049;28;20285;-78
2023/09/19 09:13:21;;;;;;;4.27;1.10;;;19.20;99.90;;;;;;4157874;28;20244;-79
2023/09/19 09:15:24;;;;;;;4.87;1.20;;;19.20;99.90;;;;;;4172736;28;20214;-78
2023/09/19 09:17:27;;;;;;;4.13;1.00;;;19.30;99.90;;;;;;4178630;28;20235;-78
2023/09/19 09:19:31;;;;;;;4.90;1.40;;;19.30;99.90;;;;;;4178204;28;20495;-78
2023/09/19 09:21:35;;;;;;;3.97;1.20;;;19.40;99.90;;;;;;4177062;28;20218;-78
2023/09/19 09:23:38;;;;;;;2.43;1.10;;;19.50;99.90;;;;;;4174031;28;20208;-78
2023/09/19 09:25:56;;;;;;;2.47;1.10;;;19.50;99.90;;;;;;4174895;28;20221;-79
2023/09/19 09:28:02;;;;;;;3.27;1.20;;;19.40;99.90;;;;;;4176016;28;20699;-78
2023/09/19 09:30:04;;;;;;;9.30;1.30;;;19.50;99.90;;;;;;4175860;28;20280;-79
2023/09/19 09:32:19;;;;;;;5.67;1.00;;;19.50;99.90;;;;;;4174872;28;20226;-78
2023/09/19 09:34:21;;;;;;;4.23;1.27;;;19.60;99.90;;;;;;4175967;28;20644;-78
2023/09/19 09:36:36;;;;;;;6.83;1.30;;;19.60;99.90;;;;;;4156510;28;20211;-78
2023/09/19 09:38:46;;;;;;;3.20;1.23;;;19.60;99.90;;;;;;4181122;28;20214;-78
2023/09/19 09:40:52;;;;;;;2.03;1.10;;;19.70;99.90;;;;;;4178245;28;20234;-78
2023/09/19 09:42:58;;;;;;;3.03;1.50;;;19.70;99.90;;;;;;4174539;28;20199;-78
2023/09/19 09:45:14;;;;;;;2.20;1.23;;;19.80;99.90;;;;;;4178355;28;21236;-78
2023/09/19 09:47:38;;;;;;;3.37;1.30;;;19.80;99.90;;;;;;4176679;28;20324;-78
2023/09/19 09:49:39;;;;;;;3.13;1.10;;;19.90;99.90;;;;;;4179878;28;20226;-78
2023/09/19 09:51:42;;;;;;;4.53;1.30;;;19.90;99.90;;;;;;4177219;28;20623;-78
2023/09/19 09:53:45;;;;;;;4.90;1.40;;;19.90;99.90;;;;;;4173446;28;20685;-78
2023/09/19 09:56:02;;;;;;;3.80;1.60;;;19.90;99.90;;;;;;4174287;28;20261;-78
2023/09/19 09:58:29;;;;;;;4.43;1.10;;;20.00;99.90;;;;;;4174703;28;20718;-78
2023/09/19 10:00:42;;;;;;;5.67;1.30;;;20.00;99.90;;;;;;4172402;28;20305;-78
2023/09/19 10:02:46;;;;;;;3.47;1.53;;;20.10;99.90;;;;;;4171615;28;20217;-78
2023/09/19 10:04:51;;;;;;;6.40;1.73;;;20.10;99.90;;;;;;4173299;28;20262;-78
2023/09/19 10:06:53;;;;;;;2.57;1.10;;;20.10;99.90;;;;;;4172611;28;20203;-78
2023/09/19 10:09:10;;;;;;;4.00;1.20;;;20.20;99.90;;;;;;4157548;28;20672;-79
2023/09/19 10:11:19;;;;;;;3.30;1.20;;;20.30;99.90;;;;;;4173919;28;20206;-77
2023/09/19 10:13:27;;;;;;;3.90;1.20;;;20.20;99.90;;;;;;4152332;28;20215;-77
2023/09/19 10:15:33;;;;;;;2.57;1.10;;;20.20;99.90;;;;;;4173521;28;20660;-78
2023/09/19 10:17:36;;;;;;;4.60;1.87;;;20.20;99.90;;;;;;4172464;28;20215;-78
2023/09/19 10:19:44;;;;;;;5.10;1.57;;;20.20;99.90;;;;;;4170796;28;20223;-78
2023/09/19 10:21:47;;;;;;;3.10;1.30;;;20.10;99.90;;;;;;4172133;28;20270;-78
2023/09/19 10:23:52;;;;;;;5.17;1.40;;;20.10;99.90;;;;;;4172795;28;20279;-78
2023/09/19 10:25:54;;;;;;;5.33;1.40;;;20.00;99.90;;;;;;4173595;28;20202;-78
2023/09/19 10:28:02;;;;;;;2.93;1.17;;;20.00;99.90;;;;;;4175929;28;20206;-78
2023/09/19 10:30:09;;;;;;;7.23;1.53;;;20.00;99.90;;;;;;4173799;28;20230;-78
2023/09/19 10:32:18;;;;;;;4.57;1.30;;;20.10;99.90;;;;;;4176183;28;20214;-77
2023/09/19 10:34:22;;;;;;;6.37;1.50;;;20.10;99.90;;;;;;4174627;28;20212;-78
2023/09/19 10:36:26;;;;;;;4.30;1.23;;;20.10;99.90;;;;;;4175234;28;20209;-78
2023/09/19 10:38:29;;;;;;;3.10;1.00;;;20.10;99.90;;;;;;4170743;28;20204;-78
2023/09/19 10:40:32;;;;;;;5.57;1.50;;;20.20;99.90;;;;;;4174550;28;20248;-78
2023/09/19 10:42:38;;;;;;;3.37;1.23;;;20.30;99.90;;;;;;4169910;28;20207;-78
2023/09/19 10:44:43;;;;;;;4.67;1.43;;;20.30;99.90;;;;;;4172650;28;20762;-78
2023/09/19 10:46:47;;;;;;;8.93;1.83;;;20.30;99.90;;;;;;4177638;28;20262;-78